Time;durP1;ratioP1;P1;durP2;ratioP2;P2;SDS_P1;SDS_P2;PMS_P1;PMS_P2;Temp;Humidity;BMP_temperature;BMP_pressure;BME280_temperature;BME280_humidity;BME280_pressure;Samples;Min_cycle;Max_cycle;Signal;HPM_P1;HPM_P2
2021/06/25 04:29:03;;;;;;;9.20;7.20;;;;;;;16.36;77.28;100084.56;5006212;28;105993;-64
2021/06/25 04:31:29;;;;;;;10.50;6.88;;;;;;;16.43;77.65;100080.00;5006717;28;106127;-64
2021/06/25 04:33:55;;;;;;;10.77;7.30;;;;;;;16.50;77.45;100083.50;5005168;28;106299;-62
2021/06/25 04:36:20;;;;;;;10.65;7.15;;;;;;;16.56;77.95;100088.00;5004623;28;106792;-65
2021/06/25 04:38:46;;;;;;;13.32;8.43;;;;;;;16.66;78.16;100101.03;5005098;28;105873;-66
2021/06/25 04:41:11;;;;;;;12.40;7.38;;;;;;;16.73;77.62;100104.53;5003847;28;106068;-65
2021/06/25 04:43:37;;;;;;;13.57;7.82;;;;;;;16.83;77.76;100104.06;5005076;28;106749;-64
2021/06/25 04:46:02;;;;;;;9.68;7.00;;;;;;;16.91;77.75;100103.84;5004674;28;106046;-64
2021/06/25 04:48:28;;;;;;;10.18;7.68;;;;;;;16.98;77.52;100100.31;5005160;28;106138;-64
2021/06/25 04:50:53;;;;;;;10.10;6.70;;;;;;;17.01;77.46;100099.88;5006273;28;105985;-65
2021/06/25 04:53:19;;;;;;;11.15;6.95;;;;;;;17.07;77.32;100107.06;5003777;28;106241;-67
2021/06/25 04:55:45;;;;;;;11.23;7.05;;;;;;;17.12;77.29;100112.66;5005199;28;106499;-68
2021/06/25 04:58:14;;;;;;;11.40;6.70;;;;;;;17.16;77.14;100111.16;5005181;28;105767;-68
2021/06/25 05:00:40;;;;;;;14.07;8.48;;;;;;;17.20;77.02;100103.50;5005835;28;106114;-68
2021/06/25 05:03:06;;;;;;;10.88;7.80;;;;;;;17.22;76.65;100113.00;5005159;28;106020;-68
2021/06/25 05:05:33;;;;;;;11.32;7.78;;;;;;;17.20;76.65;100112.38;5005027;28;106254;-73
2021/06/25 05:07:58;;;;;;;10.00;7.35;;;;;;;17.24;76.63;100105.53;5005060;28;106003;-71
2021/06/25 05:10:24;;;;;;;9.75;7.22;;;;;;;17.27;76.64;100122.31;5005737;28;106122;-72
2021/06/25 05:12:49;;;;;;;11.40;8.02;;;;;;;17.25;76.30;100126.03;5004018;28;105884;-72
2021/06/25 05:15:15;;;;;;;11.13;7.50;;;;;;;17.21;76.20;100124.00;5003553;28;106746;-71
2021/06/25 05:17:40;;;;;;;11.13;6.32;;;;;;;17.20;76.19;100120.47;5004437;28;106571;-72
2021/06/25 05:20:06;;;;;;;9.63;6.32;;;;;;;17.25;76.05;100123.34;5005497;28;106137;-72
2021/06/25 05:22:32;;;;;;;9.35;6.32;;;;;;;17.30;76.04;100124.56;5004778;28;106197;-69
2021/06/25 05:24:58;;;;;;;6.22;5.15;;;;;;;17.38;76.16;100132.38;5004743;28;106811;-72
2021/06/25 05:27:24;;;;;;;16.77;6.22;;;;;;;17.46;76.15;100124.03;5004119;28;106411;-69
2021/06/25 05:29:49;;;;;;;7.45;5.50;;;;;;;17.54;75.81;100129.16;5005152;28;105833;-67
2021/06/25 05:32:15;;;;;;;14.23;5.75;;;;;;;17.61;75.59;100136.38;5004517;28;106138;-68
2021/06/25 05:34:40;;;;;;;8.07;4.82;;;;;;;17.64;75.28;100128.69;5004426;28;106057;-68
2021/06/25 05:37:06;;;;;;;7.18;5.80;;;;;;;17.69;75.29;100138.81;5004499;28;106950;-68
2021/06/25 05:39:31;;;;;;;9.60;6.78;;;;;;;17.74;75.13;100144.34;4996639;28;106295;-68
2021/06/25 05:41:56;;;;;;;13.18;6.00;;;;;;;17.77;74.92;100152.03;4990172;28;106247;-66
2021/06/25 05:44:22;;;;;;;6.30;4.72;;;;;;;17.76;74.58;100155.75;4990450;28;106080;-66
2021/06/25 05:46:47;;;;;;;6.53;4.70;;;;;;;17.75;74.26;100160.28;4990380;28;105878;-68
2021/06/25 05:49:14;;;;;;;7.68;4.65;;;;;;;17.74;74.22;100163.22;4991982;28;105626;-69
2021/06/25 05:51:40;;;;;;;7.88;4.85;;;;;;;17.72;74.26;100159.94;4991274;28;106116;-69
2021/06/25 05:54:05;;;;;;;5.85;4.80;;;;;;;17.76;74.02;100161.13;4990904;28;105881;-68
2021/06/25 05:56:31;;;;;;;6.85;4.78;;;;;;;17.75;73.66;100163.00;4990539;28;106267;-66
2021/06/25 05:58:56;;;;;;;9.35;4.72;;;;;;;17.74;73.63;100158.66;4991624;28;105857;-70
2021/06/25 06:01:21;;;;;;;9.88;4.93;;;;;;;17.74;73.35;100158.66;4990794;28;105700;-69
2021/06/25 06:03:47;;;;;;;12.98;5.20;;;;;;;17.85;73.88;100159.84;4990125;28;105846;-74
2021/06/25 06:06:12;;;;;;;9.05;4.95;;;;;;;17.98;73.79;100150.84;4990093;28;107117;-64
2021/06/25 06:08:38;;;;;;;8.00;5.30;;;;;;;18.06;73.26;100155.13;4991305;28;106329;-68
2021/06/25 06:11:04;;;;;;;7.35;5.18;;;;;;;18.29;73.57;100159.06;4990885;28;106263;-67
2021/06/25 06:13:30;;;;;;;6.90;5.38;;;;;;;18.42;72.72;100150.84;4990490;28;105970;-63
2021/06/25 06:15:57;;;;;;;9.18;5.90;;;;;;;18.54;72.85;100156.34;4990148;28;106236;-69
2021/06/25 06:18:27;;;;;;;6.82;5.43;;;;;;;18.70;72.21;100155.75;4991471;28;105970;-67
2021/06/25 06:20:53;;;;;;;7.60;5.88;;;;;;;18.81;72.12;100162.28;4990684;28;106322;-66
2021/06/25 06:31:33;;;;;;;7.88;6.03;;;;;;;18.89;70.92;100177.34;4990646;28;105838;-67
2021/06/25 06:34:00;;;;;;;6.57;5.45;;;;;;;19.00;71.55;100170.38;4990467;28;106520;-67
2021/06/25 06:36:29;;;;;;;7.00;5.30;;;;;;;19.17;71.46;100166.00;4988496;28;106028;-69
2021/06/25 06:38:57;;;;;;;6.03;5.43;;;;;;;19.33;71.28;100163.72;4991064;28;105883;-69
2021/06/25 06:41:23;;;;;;;8.02;5.50;;;;;;;19.44;70.67;100160.25;4990285;28;106195;-74
2021/06/25 06:43:48;;;;;;;11.35;5.57;;;;;;;19.58;70.38;100166.28;4988692;28;107633;-75
2021/06/25 06:46:14;;;;;;;10.07;5.38;;;;;;;19.86;70.52;100151.31;4988205;28;106830;-73
2021/06/25 06:48:43;;;;;;;7.72;5.55;;;;;;;20.14;70.04;100153.34;4989893;28;106293;-75
2021/06/25 06:51:08;;;;;;;9.50;5.75;;;;;;;20.26;69.76;100156.88;4989059;28;106147;-75
2021/06/25 06:53:34;;;;;;;8.85;5.05;;;;;;;20.42;69.08;100149.94;4989491;28;107002;-74
2021/06/25 06:56:00;;;;;;;8.45;5.72;;;;;;;20.59;68.42;100150.03;4989335;28;106523;-72
2021/06/25 06:58:27;;;;;;;6.53;4.72;;;;;;;20.68;68.52;100136.13;4990567;28;106083;-78
2021/06/25 07:00:53;;;;;;;7.90;5.13;;;;;;;20.65;67.42;100139.31;4989322;28;105703;-70
2021/06/25 07:03:18;;;;;;;7.80;5.07;;;;;;;20.67;67.16;100139.91;4988869;28;107837;-71
2021/06/25 07:05:43;;;;;;;11.25;5.55;;;;;;;20.78;67.20;100141.81;4989527;28;108089;-71
2021/06/25 07:08:09;;;;;;;15.18;5.07;;;;;;;20.83;66.77;100144.63;4990951;28;105889;-67
2021/06/25 07:10:34;;;;;;;9.77;4.70;;;;;;;20.92;66.40;100154.00;4990062;28;106278;-68
2021/06/25 07:13:00;;;;;;;8.30;4.93;;;;;;;20.93;66.25;100158.34;4989629;28;105985;-68
2021/06/25 07:15:25;;;;;;;5.85;5.25;;;;;;;20.94;65.60;100157.31;4989397;28;106407;-70
2021/06/25 07:17:50;;;;;;;11.40;5.82;;;;;;;20.88;65.32;100152.84;4989976;28;106237;-68
2021/06/25 07:20:16;;;;;;;9.57;5.82;;;;;;;20.87;65.17;100161.19;4989805;28;105899;-67
2021/06/25 07:22:41;;;;;;;8.65;6.00;;;;;;;20.73;64.98;100158.75;4989623;28;106494;-69
2021/06/25 07:25:07;;;;;;;7.47;6.10;;;;;;;20.67;65.01;100165.09;4989229;28;106098;-68
2021/06/25 07:27:36;;;;;;;7.88;5.63;;;;;;;20.70;65.22;100166.53;4989733;28;106102;-71
2021/06/25 07:30:03;;;;;;;11.10;4.95;;;;;;;20.79;65.17;100170.53;4988183;28;106101;-69
2021/06/25 07:32:30;;;;;;;6.68;4.97;;;;;;;20.91;64.65;100174.03;4988565;28;106337;-66
2021/06/25 07:34:55;;;;;;;6.07;4.63;;;;;;;21.05;64.76;100168.31;4989129;28;106048;-66
2021/06/25 07:37:20;;;;;;;9.20;5.32;;;;;;;21.16;64.17;100170.19;4990039;28;106343;-65
2021/06/25 07:39:46;;;;;;;8.23;5.20;;;;;;;21.14;63.66;100172.31;4988378;28;106273;-70
2021/06/25 07:42:11;;;;;;;5.93;4.90;;;;;;;21.14;63.24;100164.19;4989180;28;106057;-70
2021/06/25 07:44:36;;;;;;;9.38;5.13;;;;;;;21.02;62.82;100158.78;4988845;28;106005;-71
2021/06/25 07:47:02;;;;;;;9.32;5.63;;;;;;;21.02;63.20;100147.97;4989679;28;105883;-67
2021/06/25 07:49:27;;;;;;;6.50;5.03;;;;;;;21.25;63.21;100133.50;4989149;28;106113;-71
2021/06/25 07:51:53;;;;;;;6.30;4.78;;;;;;;21.35;62.18;100129.34;4982501;28;107685;-71
2021/06/25 07:54:18;;;;;;;9.07;5.05;;;;;;;21.44;61.72;100127.88;4977183;28;109101;-69
2021/06/25 07:56:43;;;;;;;9.02;5.50;;;;;;;21.63;62.07;100136.66;4980054;28;105885;-70
2021/06/25 07:59:09;;;;;;;12.30;5.18;;;;;;;22.11;62.18;100131.72;4978888;28;106352;-66
2021/06/25 08:01:35;;;;;;;7.00;4.75;;;;;;;22.67;61.07;100144.47;4977429;28;105761;-68
2021/06/25 08:04:00;;;;;;;9.35;4.13;;;;;;;23.33;60.83;100149.88;4979365;28;105922;-68
2021/06/25 08:06:27;;;;;;;5.32;3.75;;;;;;;23.63;59.51;100154.81;4978965;28;107317;-72
2021/06/25 08:08:52;;;;;;;7.03;3.80;;;;;;;23.69;58.12;100157.53;4977951;28;106158;-73
2021/06/25 08:11:17;;;;;;;6.18;4.00;;;;;;;23.86;57.20;100160.97;4978734;28;112371;-70
2021/06/25 08:13:43;;;;;;;7.30;4.03;;;;;;;24.02;56.90;100169.25;4977456;28;106032;-69
2021/06/25 08:16:08;;;;;;;6.18;4.85;;;;;;;24.21;56.12;100175.13;4989592;28;105980;-67
2021/06/25 08:18:33;;;;;;;3.75;3.35;;;;;;;24.33;55.61;100164.84;4988845;28;106170;-66
2021/06/25 08:20:59;;;;;;;7.45;3.80;;;;;;;24.59;54.97;100174.00;4988540;28;106027;-66
2021/06/25 08:23:24;;;;;;;4.45;3.47;;;;;;;24.63;54.28;100163.44;4987435;28;106004;-69
2021/06/25 08:25:50;;;;;;;4.85;3.63;;;;;;;24.80;54.08;100176.88;4981765;28;106001;-70
2021/06/25 08:28:15;;;;;;;7.30;4.22;;;;;;;25.08;53.38;100172.06;4988387;28;106298;-68
2021/06/25 08:30:40;;;;;;;5.93;3.15;;;;;;;25.27;53.20;100178.66;4989601;28;106055;-64
2021/06/25 08:33:06;;;;;;;5.05;3.40;;;;;;;25.40;52.18;100182.81;4981132;28;106029;-66
2021/06/25 08:35:32;;;;;;;6.45;4.38;;;;;;;25.38;51.59;100179.53;4980084;28;106099;-66
2021/06/25 08:37:57;;;;;;;5.10;3.08;;;;;;;25.41;51.25;100186.34;4978128;28;106500;-67
2021/06/25 08:40:23;;;;;;;4.63;3.10;;;;;;;25.53;50.92;100186.91;4976299;28;106957;-68
2021/06/25 08:42:48;;;;;;;7.30;3.42;;;;;;;25.67;50.51;100177.13;4977728;28;105993;-66
2021/06/25 08:45:14;;;;;;;6.00;3.08;;;;;;;25.71;49.93;100182.84;4971533;28;105899;-67
2021/06/25 08:47:43;;;;;;;7.35;2.90;;;;;;;25.50;49.23;100187.47;4987054;28;106316;-65
2021/06/25 08:50:11;;;;;;;5.93;3.35;;;;;;;25.25;49.52;100196.38;4987200;28;105964;-67
2021/06/25 08:52:37;;;;;;;5.68;3.53;;;;;;;25.20;49.86;100205.34;4987619;28;105902;-67
2021/06/25 08:55:03;;;;;;;9.23;3.83;;;;;;;25.30;49.50;100199.94;4987036;28;106059;-68
2021/06/25 08:57:33;;;;;;;7.93;3.25;;;;;;;25.29;49.06;100198.31;4979216;28;106285;-70
2021/06/25 08:59:58;;;;;;;9.25;3.10;;;;;;;25.10;49.39;100197.16;4979474;28;106512;-67
2021/06/25 09:02:31;;;;;;;5.13;3.85;;;;;;;24.86;48.94;100205.75;4987652;28;106040;-69
2021/06/25 09:04:56;;;;;;;6.15;3.38;;;;;;;24.64;49.28;100206.72;4988466;28;105983;-66
2021/06/25 09:07:42;;;;;;;11.10;3.75;;;;;;;24.46;49.86;100202.50;4979509;28;106175;-62
2021/06/25 09:10:09;;;;;;;5.15;4.07;;;;;;;24.36;49.73;100202.47;4967899;28;106744;-65
2021/06/25 09:12:34;;;;;;;8.23;3.40;;;;;;;24.09;49.76;100192.47;4968034;28;106257;-70
2021/06/25 09:15:04;;;;;;;6.50;3.70;;;;;;;23.87;50.30;100200.69;4970266;28;105916;-67
2021/06/25 09:17:30;;;;;;;5.93;3.28;;;;;;;23.51;50.16;100203.09;4971223;28;106154;-63
2021/06/25 09:19:56;;;;;;;4.93;3.13;;;;;;;23.03;50.92;100196.50;4979348;28;106127;-69
2021/06/25 09:22:22;;;;;;;6.28;3.30;;;;;;;22.81;51.74;100202.75;4981784;28;106491;-67
2021/06/25 09:25:07;;;;;;;5.97;3.60;;;;;;;22.75;52.43;100198.34;4985275;28;106516;-67
2021/06/25 09:27:34;;;;;;;7.00;3.97;;;;;;;22.75;52.33;100192.91;4979722;28;106326;-65
2021/06/25 09:30:12;;;;;;;7.13;3.22;;;;;;;22.56;52.38;100187.75;4978467;28;106415;-65
2021/06/25 09:32:39;;;;;;;5.38;3.28;;;;;;;22.50;52.72;100191.47;4980040;28;106755;-64
2021/06/25 09:35:16;;;;;;;7.40;4.80;;;;;;;22.33;52.72;100196.06;4982370;28;106115;-65
2021/06/25 09:37:49;;;;;;;6.57;4.07;;;;;;;22.15;53.19;100195.25;4983106;28;106514;-66
2021/06/25 09:40:16;;;;;;;5.25;3.65;;;;;;;22.12;53.44;100201.19;4978194;28;106004;-63
2021/06/25 09:42:44;;;;;;;6.13;4.07;;;;;;;22.24;53.72;100203.78;4979709;28;106345;-63
2021/06/25 09:45:15;;;;;;;7.57;4.28;;;;;;;22.37;54.01;100191.81;4979509;28;106023;-64
2021/06/25 09:48:01;;;;;;;7.03;4.18;;;;;;;22.43;53.91;100204.38;4978073;28;105986;-66
2021/06/25 09:50:33;;;;;;;8.48;3.97;;;;;;;22.29;53.60;100210.16;4975659;28;106008;-70
2021/06/25 09:53:04;;;;;;;6.30;4.18;;;;;;;22.20;54.14;100216.22;4977926;28;106154;-71
2021/06/25 09:55:31;;;;;;;4.80;3.70;;;;;;;22.29;54.12;100210.16;4979968;28;106127;-61
2021/06/25 10:03:36;;;;;;;8.05;4.07;;;;;;;23.18;52.87;100204.88;4978782;28;106655;-61
2021/06/25 10:06:10;;;;;;;6.10;4.57;;;;;;;23.30;52.91;100207.47;4979048;28;106072;-64
2021/06/25 10:08:36;;;;;;;7.22;3.85;;;;;;;23.41;52.67;100203.75;4974989;28;106405;-65
2021/06/25 10:11:03;;;;;;;7.97;5.00;;;;;;;23.49;52.58;100206.03;4978734;28;106681;-63
2021/06/25 10:13:31;;;;;;;6.43;4.47;;;;;;;23.71;52.53;100197.00;4978672;28;105939;-73
2021/06/25 10:15:58;;;;;;;5.68;4.25;;;;;;;23.92;51.93;100186.31;4979484;28;106494;-64
2021/06/25 10:18:25;;;;;;;7.32;4.15;;;;;;;24.01;51.28;100183.97;4976363;28;106142;-73
2021/06/25 10:20:51;;;;;;;7.25;4.20;;;;;;;24.16;51.58;100181.34;4980335;28;105971;-70
2021/06/25 10:23:17;;;;;;;6.18;4.05;;;;;;;24.35;50.95;100181.75;4976703;28;106484;-69
2021/06/25 10:25:45;;;;;;;5.80;3.72;;;;;;;24.48;50.79;100183.19;4979860;28;106907;-62
2021/06/25 10:28:12;;;;;;;5.95;4.32;;;;;;;24.51;50.29;100193.56;4977237;28;106220;-63
2021/06/25 10:30:37;;;;;;;7.38;4.32;;;;;;;24.36;50.44;100188.00;4975766;28;106588;-69
2021/06/25 10:33:03;;;;;;;9.40;4.53;;;;;;;24.37;50.38;100187.75;4981516;28;107212;-68
2021/06/25 10:35:28;;;;;;;5.53;4.25;;;;;;;24.39;50.36;100190.22;4980650;28;106076;-68
2021/06/25 10:37:55;;;;;;;6.30;4.22;;;;;;;24.52;50.27;100194.38;4979432;28;106019;-71
2021/06/25 10:40:24;;;;;;;6.35;4.28;;;;;;;24.52;49.24;100192.47;4981055;28;106073;-71
2021/06/25 10:42:50;;;;;;;13.85;5.10;;;;;;;24.64;49.69;100197.75;4986219;28;105831;-68
2021/06/25 10:45:15;;;;;;;5.57;4.40;;;;;;;25.04;49.29;100190.03;4978611;28;106025;-72
2021/06/25 10:47:55;;;;;;;5.47;3.95;;;;;;;25.95;49.79;100185.06;4989274;28;106183;-72
2021/06/25 10:50:23;;;;;;;6.82;4.07;;;;;;;26.94;47.64;100187.38;4988628;28;106627;-67
2021/06/25 10:53:06;;;;;;;5.75;3.83;;;;;;;27.62;46.70;100183.16;4989377;28;105967;-69
2021/06/25 10:55:32;;;;;;;7.10;3.72;;;;;;;28.03;44.79;100188.38;4986400;28;105955;-65
2021/06/25 10:57:58;;;;;;;5.53;4.10;;;;;;;28.14;43.56;100186.31;4980406;28;106320;-65
2021/06/25 11:00:51;;;;;;;5.53;3.20;;;;;;;27.91;43.54;100189.78;4978043;28;106344;-72
2021/06/25 11:03:49;;;;;;;5.28;3.75;;;;;;;27.73;43.99;100191.31;4975307;28;106412;-66
2021/06/25 11:06:34;;;;;;;5.53;3.97;;;;;;;27.41;43.54;100185.22;4957672;28;106141;-68
2021/06/25 11:09:07;;;;;;;7.95;3.80;;;;;;;27.07;44.05;100187.88;4979188;28;106326;-70
2021/06/25 11:11:33;;;;;;;6.05;3.40;;;;;;;26.98;44.39;100185.72;4978150;28;106554;-67
2021/06/25 11:13:58;;;;;;;5.60;3.80;;;;;;;26.56;44.21;100177.88;4975650;28;106007;-67
2021/06/25 11:16:24;;;;;;;6.32;3.97;;;;;;;26.18;44.82;100172.78;4972553;28;106548;-67
2021/06/25 11:18:49;;;;;;;7.38;3.72;;;;;;;25.94;45.35;100176.03;4967118;28;106276;-70
2021/06/25 11:21:15;;;;;;;9.38;3.80;;;;;;;25.67;45.64;100188.03;4966667;28;106265;-71
2021/06/25 11:23:46;;;;;;;7.18;3.90;;;;;;;25.61;46.04;100182.84;4966975;28;106268;-64
2021/06/25 11:26:14;;;;;;;9.30;3.70;;;;;;;25.76;45.99;100182.06;4967615;28;106586;-65
2021/06/25 11:28:42;;;;;;;6.10;3.20;;;;;;;26.15;46.13;100168.69;4967619;28;106395;-65
2021/06/25 11:31:22;;;;;;;8.85;3.40;;;;;;;26.53;45.45;100173.78;4969084;28;105988;-63
2021/06/25 11:33:51;;;;;;;7.25;3.42;;;;;;;26.53;45.19;100176.53;4987326;28;106297;-66
2021/06/25 11:36:19;;;;;;;8.23;3.20;;;;;;;26.42;44.87;100183.13;4989125;28;105936;-68
2021/06/25 11:39:10;;;;;;;8.63;3.88;;;;;;;26.17;45.17;100180.16;4988832;28;106198;-66
2021/06/25 11:42:21;;;;;;;8.52;4.03;;;;;;;26.00;45.42;100185.88;4988685;28;106386;-65
2021/06/25 11:44:50;;;;;;;6.50;3.83;;;;;;;25.81;45.72;100182.06;4985173;28;106328;-70
2021/06/25 11:47:24;;;;;;;14.18;4.00;;;;;;;25.68;46.03;100181.50;4988393;28;106014;-63
2021/06/25 11:52:20;;;;;;;10.63;4.13;;;;;;;25.55;46.48;100182.03;4988357;28;106515;-68
2021/06/25 11:54:52;;;;;;;5.68;3.38;;;;;;;25.61;46.52;100186.38;4988791;28;106022;-64
2021/06/25 11:57:20;;;;;;;5.80;2.97;;;;;;;25.62;46.09;100185.31;4989672;28;106126;-66
2021/06/25 12:00:16;;;;;;;5.20;2.83;;;;;;;25.87;46.12;100180.97;4988925;28;106355;-69
2021/06/25 12:02:49;;;;;;;5.00;3.30;;;;;;;26.34;45.47;100184.50;4988103;28;106815;-62
2021/06/25 12:05:15;;;;;;;11.10;3.80;;;;;;;26.50;44.44;100191.59;4988265;28;106355;-64
2021/06/25 12:07:41;;;;;;;4.78;3.50;;;;;;;26.64;44.29;100194.53;4989076;28;106282;-64
2021/06/25 12:10:07;;;;;;;8.13;3.53;;;;;;;26.75;43.90;100192.63;4988467;28;106043;-66
2021/06/25 12:12:38;;;;;;;6.82;3.50;;;;;;;26.62;43.72;100193.19;4988433;28;106400;-63
2021/06/25 12:15:09;;;;;;;6.43;3.22;;;;;;;26.52;44.12;100196.75;4988472;28;105798;-63
2021/06/25 12:17:47;;;;;;;6.93;3.70;;;;;;;26.46;44.10;100200.59;4986256;28;105880;-65
2021/06/25 12:20:21;;;;;;;6.50;3.60;;;;;;;26.15;44.37;100193.28;4988349;28;106369;-65
2021/06/25 12:22:55;;;;;;;6.22;3.75;;;;;;;26.05;44.98;100196.00;4988194;28;105986;-67
2021/06/25 12:25:48;;;;;;;5.70;3.53;;;;;;;25.93;44.92;100185.34;4988114;28;105877;-63
2021/06/25 12:28:18;;;;;;;6.22;3.60;;;;;;;25.99;44.70;100183.41;4987662;28;106695;-65
2021/06/25 12:30:52;;;;;;;5.57;3.20;;;;;;;26.29;44.98;100177.13;4982497;28;106423;-62
2021/06/25 12:33:23;;;;;;;5.35;3.78;;;;;;;26.56;43.84;100169.69;4979050;28;106736;-68
2021/06/25 12:35:56;;;;;;;9.30;3.60;;;;;;;26.75;44.00;100173.50;4982722;28;106466;-66
2021/06/25 12:38:23;;;;;;;5.60;3.10;;;;;;;27.01;43.40;100176.09;4988960;28;106326;-67
2021/06/25 12:40:52;;;;;;;6.30;3.50;;;;;;;27.27;42.93;100168.59;4988438;28;106434;-66
2021/06/25 12:43:31;;;;;;;8.50;4.40;;;;;;;27.54;42.48;100172.81;4987568;28;105825;-69
2021/06/25 12:46:16;;;;;;;8.30;3.73;;;;;;;27.80;41.95;100169.91;4987493;28;106230;-67
2021/06/25 12:48:53;;;;;;;4.60;3.83;;;;;;;28.03;41.36;100157.41;4987855;28;106040;-69
2021/06/25 12:51:25;;;;;;;10.38;4.03;;;;;;;28.15;41.35;100157.03;4991225;28;105852;-62
2021/06/25 12:53:57;;;;;;;6.82;4.10;;;;;;;28.20;40.74;100151.53;4989902;28;106145;-64
2021/06/25 12:56:24;;;;;;;6.38;3.60;;;;;;;28.08;40.72;100149.16;4989845;28;106255;-72
2021/06/25 12:58:56;;;;;;;11.57;4.28;;;;;;;28.11;40.79;100161.47;4991889;28;106465;-69
